Time;durP1;ratioP1;P1;durP2;ratioP2;P2;SDS_P1;SDS_P2;PMS_P1;PMS_P2;Temp;Humidity;BMP_temperature;BMP_pressure;BME280_temperature;BME280_humidity;BME280_pressure;Samples;Min_cycle;Max_cycle;Signal;HPM_P1;HPM_P2
2021/12/28 00:01:08;;;;;;;23.10;15.70;;;3.00;99.90;;;;;;5000415;28;20055;-78
2021/12/28 00:03:35;;;;;;;21.35;15.27;;;3.10;99.90;;;;;;4993694;28;20065;-78
2021/12/28 00:06:01;;;;;;;24.45;15.98;;;3.10;99.90;;;;;;5005156;28;20140;-77
2021/12/28 00:08:28;;;;;;;22.95;15.85;;;3.10;99.90;;;;;;5010800;28;20057;-78
2021/12/28 00:10:55;;;;;;;28.45;15.20;;;3.10;99.90;;;;;;4976040;28;20058;-77
2021/12/28 00:13:21;;;;;;;21.83;15.68;;;3.10;99.90;;;;;;4981466;28;20065;-77
2021/12/28 00:16:00;;;;;;;23.15;14.43;;;3.10;99.90;;;;;;4999575;28;20058;-78
2021/12/28 00:18:27;;;;;;;21.95;14.57;;;3.20;99.90;;;;;;4997739;28;20137;-78
2021/12/28 00:20:53;;;;;;;19.77;15.23;;;3.20;99.90;;;;;;4988301;28;20482;-77
2021/12/28 00:23:20;;;;;;;21.70;15.27;;;3.20;99.90;;;;;;4981587;28;20497;-78
2021/12/28 00:25:46;;;;;;;24.70;15.77;;;3.30;99.90;;;;;;4989943;28;20494;-78
2021/12/28 00:28:13;;;;;;;21.98;14.93;;;3.30;99.90;;;;;;5003607;28;20485;-78
2021/12/28 00:30:39;;;;;;;20.80;14.80;;;3.30;99.90;;;;;;4993989;28;20502;-79
2021/12/28 00:33:06;;;;;;;22.85;16.35;;;3.30;99.90;;;;;;4988679;28;20054;-79
2021/12/28 00:35:32;;;;;;;23.50;15.88;;;3.30;99.90;;;;;;4982732;28;20054;-78
2021/12/28 00:37:59;;;;;;;21.30;14.32;;;3.30;99.90;;;;;;4992570;28;20081;-77
2021/12/28 00:40:26;;;;;;;23.75;16.10;;;3.40;99.90;;;;;;4985488;28;20053;-78
2021/12/28 00:42:52;;;;;;;29.70;16.48;;;3.40;99.90;;;;;;5010831;28;20057;-78
2021/12/28 00:45:19;;;;;;;20.92;15.32;;;3.40;99.90;;;;;;4991364;28;20065;-78
2021/12/28 00:47:45;;;;;;;23.38;15.38;;;3.40;99.90;;;;;;4989302;28;20050;-78
2021/12/28 00:50:12;;;;;;;19.77;15.45;;;3.50;99.90;;;;;;4993303;28;20050;-78
2021/12/28 00:52:38;;;;;;;22.73;14.30;;;3.50;99.90;;;;;;4997921;28;20058;-78
2021/12/28 00:55:05;;;;;;;18.40;14.65;;;3.50;99.90;;;;;;5001743;28;20049;-78
2021/12/28 00:57:31;;;;;;;22.98;15.75;;;3.50;99.90;;;;;;4992643;28;20054;-79
2021/12/28 00:59:58;;;;;;;19.20;15.50;;;3.50;99.90;;;;;;4999104;28;20053;-78
2021/12/28 01:02:24;;;;;;;19.55;15.00;;;3.50;99.90;;;;;;5009881;28;20121;-78
2021/12/28 01:04:51;;;;;;;24.88;15.85;;;3.50;99.90;;;;;;4985786;28;20486;-78
2021/12/28 01:07:18;;;;;;;21.20;15.93;;;3.50;99.90;;;;;;4990366;28;20046;-78
2021/12/28 01:09:45;;;;;;;23.10;15.95;;;3.50;99.90;;;;;;4998234;28;20480;-78
2021/12/28 01:12:11;;;;;;;22.23;15.95;;;3.50;99.90;;;;;;5004209;28;20097;-78
2021/12/28 01:14:38;;;;;;;20.73;15.30;;;3.50;99.90;;;;;;5005885;28;20054;-79
2021/12/28 01:17:04;;;;;;;21.83;15.57;;;3.50;99.90;;;;;;4981973;28;20109;-77
2021/12/28 01:19:31;;;;;;;26.23;15.18;;;3.50;99.90;;;;;;4983028;28;20054;-78
2021/12/28 01:21:57;;;;;;;27.50;17.17;;;3.50;99.90;;;;;;5002910;28;20056;-77
2021/12/28 01:24:24;;;;;;;27.83;17.23;;;3.50;99.90;;;;;;4993642;28;20493;-77
2021/12/28 01:26:51;;;;;;;27.88;16.60;;;3.50;99.90;;;;;;4982235;28;20623;-77
2021/12/28 01:29:17;;;;;;;31.30;17.95;;;3.50;99.90;;;;;;4986468;28;20109;-77
2021/12/28 01:31:44;;;;;;;26.70;17.35;;;3.60;99.90;;;;;;4987163;28;20512;-77
2021/12/28 01:34:10;;;;;;;27.48;17.77;;;3.60;99.90;;;;;;4977058;28;20401;-77
2021/12/28 01:36:37;;;;;;;32.53;18.80;;;3.60;99.90;;;;;;4990807;28;20054;-78
2021/12/28 01:39:04;;;;;;;26.65;18.42;;;3.70;99.90;;;;;;4992220;28;20071;-78
2021/12/28 01:41:30;;;;;;;33.88;18.65;;;3.70;99.90;;;;;;5009317;28;20052;-77
2021/12/28 01:43:57;;;;;;;29.90;18.95;;;3.60;99.90;;;;;;5012158;28;20057;-77
2021/12/28 01:46:24;;;;;;;28.83;18.10;;;3.70;99.90;;;;;;4986791;28;20046;-78
2021/12/28 01:48:51;;;;;;;32.63;18.52;;;3.70;99.90;;;;;;4982146;28;20050;-78
2021/12/28 01:51:17;;;;;;;34.60;18.90;;;3.70;99.90;;;;;;4989757;28;20084;-77
2021/12/28 01:53:44;;;;;;;28.42;18.10;;;3.70;99.90;;;;;;5007539;28;20054;-78
2021/12/28 01:56:10;;;;;;;28.17;17.30;;;3.70;99.90;;;;;;4992309;28;20059;-78
2021/12/28 01:58:37;;;;;;;34.15;19.60;;;3.70;99.90;;;;;;4982039;28;20054;-78
2021/12/28 02:01:03;;;;;;;28.65;18.00;;;3.70;99.90;;;;;;5010701;28;20050;-78
2021/12/28 02:03:30;;;;;;;38.58;21.20;;;3.80;99.90;;;;;;4996855;28;20089;-77
2021/12/28 02:05:56;;;;;;;32.45;20.52;;;3.80;99.90;;;;;;4986575;28;20058;-78
2021/12/28 02:08:23;;;;;;;34.28;20.98;;;3.80;99.90;;;;;;5013579;28;20060;-77
2021/12/28 02:10:50;;;;;;;34.22;20.15;;;3.80;99.90;;;;;;4994577;28;20054;-78
2021/12/28 02:13:16;;;;;;;36.28;20.70;;;3.90;99.90;;;;;;5009066;28;20050;-78
2021/12/28 02:15:43;;;;;;;33.05;20.67;;;4.00;99.90;;;;;;5003273;28;20062;-78
2021/12/28 02:18:09;;;;;;;34.67;21.70;;;3.90;99.90;;;;;;4995700;28;20088;-77
2021/12/28 02:20:36;;;;;;;33.40;21.25;;;3.90;99.90;;;;;;4995616;28;20061;-77
2021/12/28 02:23:02;;;;;;;45.20;23.80;;;4.00;99.90;;;;;;4984713;28;20050;-78
2021/12/28 02:25:29;;;;;;;39.55;21.67;;;3.90;99.90;;;;;;4992376;28;20054;-76
2021/12/28 02:27:55;;;;;;;43.97;24.60;;;4.00;99.90;;;;;;4986441;28;20050;-78
2021/12/28 02:30:22;;;;;;;40.53;23.55;;;4.00;99.90;;;;;;5009397;28;20052;-78
2021/12/28 02:32:48;;;;;;;43.03;22.33;;;4.00;99.90;;;;;;4995243;28;20046;-79
2021/12/28 02:35:15;;;;;;;45.53;23.80;;;4.00;99.90;;;;;;5013329;28;20050;-78
2021/12/28 02:37:41;;;;;;;42.13;20.88;;;4.00;99.90;;;;;;4992170;28;20054;-78
2021/12/28 02:40:08;;;;;;;44.28;23.00;;;4.00;99.90;;;;;;4985613;28;20054;-77
2021/12/28 02:42:34;;;;;;;42.50;20.85;;;4.00;99.90;;;;;;4988081;28;20054;-77
2021/12/28 02:45:02;;;;;;;39.13;21.58;;;4.10;99.90;;;;;;4991254;28;20091;-76
2021/12/28 02:47:30;;;;;;;48.45;24.80;;;4.10;99.90;;;;;;4984311;28;20042;-78
2021/12/28 02:49:57;;;;;;;69.97;25.42;;;4.10;99.90;;;;;;4988797;28;20046;-78
2021/12/28 02:52:23;;;;;;;48.63;24.52;;;4.10;99.90;;;;;;4994450;28;20046;-77
2021/12/28 02:54:50;;;;;;;67.70;26.48;;;4.10;99.90;;;;;;4983576;28;20058;-76
2021/12/28 02:57:16;;;;;;;45.88;23.73;;;4.10;99.90;;;;;;4981078;28;20054;-78
2021/12/28 02:59:43;;;;;;;55.13;26.20;;;4.10;99.90;;;;;;4988330;28;20174;-78
2021/12/28 03:02:09;;;;;;;67.15;29.35;;;4.10;99.90;;;;;;4985535;28;20056;-78
2021/12/28 03:04:36;;;;;;;49.45;22.92;;;4.10;99.90;;;;;;4996732;28;20046;-78
2021/12/28 03:07:02;;;;;;;52.15;25.40;;;4.10;99.90;;;;;;4995423;28;20065;-78
2021/12/28 03:09:29;;;;;;;47.50;24.23;;;4.10;99.90;;;;;;4988298;28;20054;-78
2021/12/28 03:11:55;;;;;;;87.63;31.85;;;4.10;99.90;;;;;;4983588;28;20047;-79
2021/12/28 03:14:22;;;;;;;99.57;31.30;;;4.20;99.90;;;;;;4990652;28;20053;-77
2021/12/28 03:16:48;;;;;;;91.20;31.05;;;4.20;99.90;;;;;;4994184;28;20057;-79
2021/12/28 03:19:15;;;;;;;59.75;27.65;;;4.30;99.90;;;;;;4994985;28;20049;-78
2021/12/28 03:21:42;;;;;;;62.72;29.65;;;4.20;99.90;;;;;;4987322;28;20061;-78
2021/12/28 03:24:08;;;;;;;71.18;32.10;;;4.20;99.90;;;;;;4981749;28;20047;-79
2021/12/28 03:26:35;;;;;;;71.95;30.45;;;4.20;99.90;;;;;;4984236;28;20064;-78
2021/12/28 03:29:01;;;;;;;82.28;29.45;;;4.30;99.90;;;;;;4990860;28;20056;-78
2021/12/28 03:31:28;;;;;;;65.82;28.95;;;4.30;99.90;;;;;;4984622;28;20050;-78
2021/12/28 03:33:54;;;;;;;75.28;29.65;;;4.30;99.90;;;;;;4992048;28;20054;-78
2021/12/28 03:36:21;;;;;;;74.00;29.42;;;4.30;99.90;;;;;;4977157;28;20053;-78
2021/12/28 03:38:47;;;;;;;68.90;30.13;;;4.30;99.90;;;;;;4984928;28;20050;-79
2021/12/28 03:41:14;;;;;;;87.05;30.42;;;4.30;99.90;;;;;;4989937;28;20065;-76
2021/12/28 03:43:40;;;;;;;65.88;30.23;;;4.30;99.90;;;;;;4984436;28;20054;-78
2021/12/28 03:46:07;;;;;;;71.68;29.83;;;4.30;99.90;;;;;;4979633;28;20046;-78
2021/12/28 03:48:33;;;;;;;65.70;30.25;;;4.30;99.90;;;;;;4986103;28;20050;-78
2021/12/28 03:51:00;;;;;;;75.25;30.15;;;4.30;99.90;;;;;;4976106;28;20059;-78
2021/12/28 03:53:27;;;;;;;56.40;27.80;;;4.40;99.90;;;;;;4983164;28;20058;-77
2021/12/28 03:55:53;;;;;;;61.42;27.25;;;4.30;99.90;;;;;;4988852;28;20046;-78
2021/12/28 03:58:20;;;;;;;86.25;31.77;;;4.30;99.90;;;;;;4982234;28;20058;-76
2021/12/28 04:00:47;;;;;;;83.15;32.17;;;4.30;99.90;;;;;;4988838;28;20069;-79
2021/12/28 04:03:13;;;;;;;83.32;33.15;;;4.30;99.90;;;;;;4978278;28;20045;-78
2021/12/28 04:05:40;;;;;;;97.93;33.10;;;4.30;99.90;;;;;;4976959;28;20054;-77
2021/12/28 04:08:06;;;;;;;72.72;30.25;;;4.40;99.90;;;;;;4985929;28;20054;-78
2021/12/28 04:10:48;;;;;;;79.95;31.67;;;4.30;99.90;;;;;;4985115;28;20057;-78
2021/12/28 04:13:14;;;;;;;118.53;36.22;;;4.30;99.90;;;;;;4989239;28;20108;-78
2021/12/28 04:15:41;;;;;;;90.88;33.47;;;4.30;99.90;;;;;;4990593;28;20054;-78
2021/12/28 04:18:08;;;;;;;70.38;28.20;;;4.30;99.90;;;;;;4983533;28;20069;-78
2021/12/28 04:20:34;;;;;;;121.70;35.33;;;4.30;99.90;;;;;;4980765;28;20058;-78
2021/12/28 04:23:01;;;;;;;163.57;39.72;;;4.30;99.90;;;;;;4981508;28;20054;-78
2021/12/28 04:25:27;;;;;;;178.10;41.30;;;4.30;99.90;;;;;;4978748;28;20054;-78
2021/12/28 04:27:54;;;;;;;81.75;30.75;;;4.30;99.90;;;;;;4985827;28;20054;-79
2021/12/28 04:30:20;;;;;;;73.55;32.60;;;4.30;99.90;;;;;;4972872;28;20054;-78
2021/12/28 04:32:47;;;;;;;258.08;50.25;;;4.30;99.90;;;;;;4978006;28;20072;-78
2021/12/28 04:35:14;;;;;;;251.02;50.47;;;4.30;99.90;;;;;;4975269;28;20057;-78
2021/12/28 04:37:40;;;;;;;267.52;49.10;;;4.40;99.90;;;;;;4984951;28;20486;-78
2021/12/28 04:40:07;;;;;;;129.18;36.42;;;4.40;99.90;;;;;;4978541;28;20521;-78
2021/12/28 04:42:33;;;;;;;183.63;38.20;;;4.30;99.90;;;;;;4986213;28;20051;-78
2021/12/28 04:45:00;;;;;;;206.88;44.67;;;4.40;99.90;;;;;;4982745;28;20069;-78
2021/12/28 04:47:27;;;;;;;262.83;47.47;;;4.40;99.90;;;;;;4987609;28;20409;-78
2021/12/28 04:49:53;;;;;;;534.60;83.57;;;4.40;99.90;;;;;;4981159;28;20062;-79
2021/12/28 04:52:20;;;;;;;244.10;46.05;;;4.50;99.90;;;;;;4980754;28;20058;-78
2021/12/28 04:54:46;;;;;;;383.92;61.83;;;4.40;99.90;;;;;;4982706;28;20416;-77
2021/12/28 04:57:13;;;;;;;351.20;57.60;;;4.50;99.90;;;;;;4977859;28;20061;-78
2021/12/28 04:59:39;;;;;;;191.98;38.35;;;4.50;99.90;;;;;;4987852;28;20054;-76
2021/12/28 05:02:06;;;;;;;487.50;80.40;;;4.60;99.90;;;;;;4984038;28;20062;-77
2021/12/28 05:04:32;;;;;;;229.55;46.28;;;4.60;99.90;;;;;;4982783;28;20042;-77
2021/12/28 05:06:59;;;;;;;167.98;37.47;;;4.60;99.90;;;;;;4978838;28;20053;-78
2021/12/28 05:09:25;;;;;;;308.00;48.55;;;4.60;99.90;;;;;;4982145;28;20054;-78
2021/12/28 05:11:52;;;;;;;326.90;51.05;;;4.60;99.90;;;;;;4978885;28;20057;-78
2021/12/28 05:14:20;;;;;;;260.10;45.05;;;4.60;99.90;;;;;;4982311;28;20054;-78
2021/12/28 05:16:46;;;;;;;493.45;74.97;;;4.60;99.90;;;;;;4988476;28;20054;-77
2021/12/28 05:19:14;;;;;;;332.15;52.92;;;4.60;99.90;;;;;;4992244;28;20053;-78
2021/12/28 05:21:40;;;;;;;287.95;47.00;;;4.60;99.90;;;;;;4990321;28;20450;-77
2021/12/28 05:24:07;;;;;;;371.17;58.42;;;4.60;99.90;;;;;;4990178;28;20513;-78
2021/12/28 05:26:33;;;;;;;399.08;57.80;;;4.60;99.90;;;;;;4982808;28;20076;-78
2021/12/28 05:29:00;;;;;;;253.40;44.90;;;4.60;99.90;;;;;;4977746;28;20494;-78
2021/12/28 05:31:27;;;;;;;387.83;54.53;;;4.60;99.90;;;;;;4982951;28;20478;-78
2021/12/28 05:33:54;;;;;;;212.40;39.13;;;4.60;99.90;;;;;;4989045;28;20515;-79
2021/12/28 05:36:20;;;;;;;438.98;61.85;;;4.60;99.90;;;;;;4982165;28;20498;-78
2021/12/28 05:38:47;;;;;;;460.77;62.45;;;4.60;99.90;;;;;;4984614;28;20055;-77
2021/12/28 05:41:13;;;;;;;546.95;78.03;;;4.50;99.90;;;;;;5003195;28;20058;-78
2021/12/28 05:43:40;;;;;;;224.07;41.25;;;4.60;99.90;;;;;;4986693;28;20072;-78
2021/12/28 05:46:06;;;;;;;205.52;35.42;;;4.60;99.90;;;;;;4984943;28;20405;-78
2021/12/28 05:48:33;;;;;;;270.98;45.03;;;4.60;99.90;;;;;;4990542;28;20474;-78
2021/12/28 05:51:00;;;;;;;313.90;45.70;;;4.60;99.90;;;;;;4991809;28;20505;-79
2021/12/28 05:53:26;;;;;;;422.60;56.78;;;4.60;99.90;;;;;;4988466;28;20057;-79
2021/12/28 05:55:53;;;;;;;412.70;56.75;;;4.60;99.90;;;;;;5009383;28;20058;-78
2021/12/28 05:58:19;;;;;;;394.90;53.15;;;4.60;99.90;;;;;;4993561;28;20054;-78
2021/12/28 06:00:46;;;;;;;179.05;35.72;;;4.60;99.90;;;;;;4995151;28;20065;-78
2021/12/28 06:03:12;;;;;;;318.73;44.65;;;4.60;99.90;;;;;;5013823;28;20049;-78
2021/12/28 06:05:39;;;;;;;221.27;38.20;;;4.60;99.90;;;;;;5012385;28;20054;-78
2021/12/28 06:08:05;;;;;;;303.83;44.97;;;4.60;99.90;;;;;;4991122;28;20051;-78
2021/12/28 06:10:32;;;;;;;397.55;55.80;;;4.60;99.90;;;;;;5005309;28;20054;-78
2021/12/28 06:12:58;;;;;;;349.15;52.63;;;4.60;99.90;;;;;;4989807;28;20053;-78
2021/12/28 06:15:25;;;;;;;213.50;37.15;;;4.60;99.90;;;;;;4986832;28;20053;-78
2021/12/28 06:17:51;;;;;;;291.38;42.92;;;4.60;99.90;;;;;;4989204;28;20057;-79
2021/12/28 06:20:18;;;;;;;208.95;38.00;;;4.60;99.90;;;;;;5002831;28;20054;-77
2021/12/28 06:22:44;;;;;;;173.80;36.63;;;4.70;99.90;;;;;;4978769;28;20057;-78
2021/12/28 06:25:11;;;;;;;139.73;33.85;;;4.70;99.90;;;;;;4978748;28;20054;-78
2021/12/28 06:27:38;;;;;;;269.38;48.47;;;4.70;99.90;;;;;;4995386;28;20053;-78
2021/12/28 06:30:04;;;;;;;135.60;34.40;;;4.70;99.90;;;;;;4994451;28;20076;-78
2021/12/28 06:32:31;;;;;;;131.95;35.78;;;4.80;99.90;;;;;;5005687;28;20536;-78
2021/12/28 06:34:57;;;;;;;82.88;32.42;;;4.70;99.90;;;;;;5010697;28;20490;-78
2021/12/28 06:37:24;;;;;;;83.82;30.52;;;4.70;99.90;;;;;;4991815;28;20504;-77
2021/12/28 06:39:50;;;;;;;72.38;29.42;;;4.70;99.90;;;;;;4993091;28;20053;-79
2021/12/28 06:42:17;;;;;;;58.60;26.70;;;4.80;99.90;;;;;;4991805;28;20054;-77
2021/12/28 06:44:45;;;;;;;56.47;25.60;;;4.80;99.90;;;;;;4993656;28;20404;-77
2021/12/28 06:47:12;;;;;;;61.25;26.05;;;4.80;99.90;;;;;;5009968;28;20049;-78
2021/12/28 06:49:39;;;;;;;49.65;25.20;;;4.80;99.90;;;;;;4993124;28;20046;-78
2021/12/28 06:52:06;;;;;;;53.72;24.42;;;4.90;99.90;;;;;;4988206;28;20396;-79
2021/12/28 06:54:36;;;;;;;50.40;24.20;;;4.80;99.90;;;;;;5012328;28;20515;-78
2021/12/28 06:57:03;;;;;;;46.25;24.10;;;4.90;99.90;;;;;;4992448;28;20049;-78
2021/12/28 06:59:29;;;;;;;42.33;23.92;;;4.90;99.90;;;;;;4993408;28;20042;-78
2021/12/28 07:01:58;;;;;;;49.65;25.63;;;4.90;99.90;;;;;;5010992;28;20045;-78
2021/12/28 07:04:24;;;;;;;37.80;21.50;;;4.90;99.90;;;;;;5009257;28;20053;-79
2021/12/28 07:06:51;;;;;;;39.38;21.98;;;4.90;99.90;;;;;;4991884;28;20054;-78
2021/12/28 07:09:17;;;;;;;35.38;20.10;;;4.90;99.90;;;;;;4992720;28;20063;-78
2021/12/28 07:11:44;;;;;;;33.35;19.92;;;5.00;99.90;;;;;;4991308;28;20046;-78
2021/12/28 07:14:10;;;;;;;33.40;20.08;;;5.00;99.90;;;;;;4994097;28;20050;-81
2021/12/28 07:16:37;;;;;;;34.67;20.83;;;5.00;99.90;;;;;;5010225;28;20056;-79
2021/12/28 07:19:09;;;;;;;29.30;18.83;;;5.00;99.90;;;;;;4991823;28;20054;-79
2021/12/28 07:21:36;;;;;;;31.02;18.63;;;5.00;99.90;;;;;;5012471;28;20068;-78
2021/12/28 07:24:02;;;;;;;32.40;18.52;;;5.00;99.90;;;;;;5009574;28;20049;-78
2021/12/28 07:26:29;;;;;;;33.53;16.98;;;5.00;99.90;;;;;;4991161;28;20048;-78
2021/12/28 07:28:57;;;;;;;28.25;17.05;;;5.00;99.90;;;;;;4991810;28;20046;-78
2021/12/28 07:31:23;;;;;;;29.90;17.73;;;5.00;99.90;;;;;;5009461;28;20053;-78
2021/12/28 07:33:50;;;;;;;33.08;17.20;;;5.00;99.90;;;;;;4992470;28;20052;-78
2021/12/28 07:36:17;;;;;;;33.55;17.50;;;5.00;99.90;;;;;;4992756;28;20054;-78
2021/12/28 07:38:44;;;;;;;33.65;15.95;;;5.00;99.90;;;;;;5008457;28;20096;-78
2021/12/28 07:41:10;;;;;;;28.83;14.98;;;5.00;99.90;;;;;;4991890;28;20046;-78
2021/12/28 07:43:37;;;;;;;28.25;16.10;;;5.00;99.90;;;;;;4991137;28;20065;-78
2021/12/28 07:46:04;;;;;;;25.00;15.02;;;5.00;99.90;;;;;;5009248;28;20045;-77
2021/12/28 07:48:30;;;;;;;29.95;14.02;;;5.00;99.90;;;;;;5008780;28;20049;-78
2021/12/28 07:50:57;;;;;;;23.17;13.27;;;5.00;99.90;;;;;;4993691;28;20049;-77
2021/12/28 07:53:23;;;;;;;25.98;14.38;;;4.90;99.90;;;;;;4989918;28;20049;-79
2021/12/28 07:55:50;;;;;;;34.47;15.38;;;5.00;99.90;;;;;;4993707;28;20057;-78
2021/12/28 07:58:16;;;;;;;23.30;13.57;;;5.00;99.90;;;;;;5009105;28;20054;-78
2021/12/28 08:00:43;;;;;;;21.50;12.77;;;5.10;99.90;;;;;;5007394;28;20049;-78
2021/12/28 08:03:09;;;;;;;21.80;12.52;;;5.00;99.90;;;;;;5010967;28;20061;-79
2021/12/28 08:05:36;;;;;;;25.35;13.52;;;5.00;99.90;;;;;;5007687;28;20054;-79
2021/12/28 08:08:02;;;;;;;23.77;13.25;;;5.00;99.90;;;;;;5008527;28;20058;-79
2021/12/28 08:10:29;;;;;;;21.50;12.07;;;5.00;99.90;;;;;;4991443;28;20050;-79
2021/12/28 08:12:56;;;;;;;24.88;14.73;;;5.00;99.90;;;;;;5006505;28;20046;-79
2021/12/28 08:15:23;;;;;;;24.40;12.75;;;5.10;99.90;;;;;;5009760;28;20048;-79
2021/12/28 08:17:49;;;;;;;32.70;14.05;;;5.10;99.90;;;;;;4993735;28;20046;-79
2021/12/28 08:20:16;;;;;;;25.00;12.27;;;5.10;99.90;;;;;;5008741;28;20085;-79
2021/12/28 08:22:43;;;;;;;32.28;11.15;;;5.10;99.90;;;;;;4991533;28;20050;-78
2021/12/28 08:25:09;;;;;;;26.05;11.35;;;5.20;99.90;;;;;;4993453;28;20064;-79
2021/12/28 08:27:36;;;;;;;26.92;12.10;;;5.20;99.90;;;;;;5009476;28;20066;-78
2021/12/28 08:30:02;;;;;;;22.48;11.15;;;5.20;99.90;;;;;;4989359;28;20053;-79
2021/12/28 08:32:29;;;;;;;19.60;10.88;;;5.20;99.90;;;;;;4991082;28;20058;-79
2021/12/28 08:34:55;;;;;;;18.88;10.65;;;5.30;99.90;;;;;;4993280;28;20053;-79
2021/12/28 08:37:22;;;;;;;26.05;9.70;;;5.30;99.90;;;;;;4989664;28;20057;-79
2021/12/28 08:39:48;;;;;;;18.25;9.35;;;5.30;99.90;;;;;;4993124;28;20058;-79
2021/12/28 08:42:15;;;;;;;22.63;10.30;;;5.30;99.90;;;;;;4993313;28;20128;-78
2021/12/28 08:44:41;;;;;;;18.67;9.05;;;5.30;99.90;;;;;;5012097;28;20108;-78
2021/12/28 08:47:09;;;;;;;20.35;9.82;;;5.40;99.90;;;;;;5013561;28;20065;-79
2021/12/28 08:49:36;;;;;;;20.00;10.27;;;5.40;99.90;;;;;;4995586;28;20053;-79
2021/12/28 08:52:04;;;;;;;19.08;9.82;;;5.40;99.90;;;;;;4996949;28;20077;-78
2021/12/28 08:54:31;;;;;;;16.27;10.27;;;5.40;99.90;;;;;;4994962;28;20061;-78
2021/12/28 08:56:57;;;;;;;26.13;10.13;;;5.50;99.90;;;;;;4996996;28;20046;-79
2021/12/28 08:59:24;;;;;;;19.00;8.48;;;5.50;99.90;;;;;;4995377;28;20097;-79
2021/12/28 09:01:50;;;;;;;20.77;9.07;;;5.60;99.90;;;;;;4993303;28;20049;-79
2021/12/28 09:04:17;;;;;;;20.02;9.10;;;5.60;99.90;;;;;;5012079;28;20052;-79
2021/12/28 09:06:45;;;;;;;22.70;8.07;;;5.60;99.90;;;;;;4994963;28;20056;-80
2021/12/28 09:09:11;;;;;;;18.35;9.05;;;5.60;99.90;;;;;;4993315;28;20128;-80
2021/12/28 09:11:39;;;;;;;17.05;7.53;;;5.70;99.90;;;;;;5011414;28;20062;-80
2021/12/28 09:14:05;;;;;;;18.23;8.82;;;5.70;99.90;;;;;;4992940;28;20050;-79
2021/12/28 09:16:32;;;;;;;18.40;6.90;;;5.70;99.90;;;;;;5011013;28;20046;-79
2021/12/28 09:18:58;;;;;;;16.00;6.45;;;5.80;99.90;;;;;;4988381;28;20064;-79
2021/12/28 09:21:25;;;;;;;15.57;6.18;;;5.90;99.90;;;;;;4994321;28;20057;-79
2021/12/28 09:23:52;;;;;;;16.10;8.32;;;5.80;99.90;;;;;;4998104;28;20497;-80
2021/12/28 09:26:18;;;;;;;19.33;7.03;;;5.90;99.90;;;;;;5007875;28;20568;-79
2021/12/28 09:28:45;;;;;;;22.20;7.82;;;5.90;99.90;;;;;;5000366;28;20049;-77
2021/12/28 09:31:11;;;;;;;24.90;8.85;;;5.90;99.90;;;;;;4992103;28;20050;-79
2021/12/28 09:33:38;;;;;;;24.60;7.60;;;6.00;99.90;;;;;;5001642;28;20042;-80
2021/12/28 09:36:07;;;;;;;23.73;7.40;;;6.00;99.90;;;;;;5009632;28;20501;-79
2021/12/28 09:38:34;;;;;;;21.77;7.78;;;6.00;99.90;;;;;;5005093;28;20444;-79
2021/12/28 09:41:00;;;;;;;27.67;7.68;;;6.10;99.90;;;;;;4988213;28;20042;-79
2021/12/28 09:43:27;;;;;;;21.83;8.00;;;6.10;99.90;;;;;;5010042;28;20046;-79
2021/12/28 09:45:54;;;;;;;14.93;7.80;;;6.10;99.90;;;;;;4992096;28;20523;-80
2021/12/28 09:48:20;;;;;;;21.80;6.70;;;6.20;99.90;;;;;;4990579;28;20046;-80
2021/12/28 09:50:47;;;;;;;22.92;7.35;;;6.20;99.90;;;;;;4989344;28;20049;-79
2021/12/28 09:53:13;;;;;;;17.83;7.25;;;6.30;99.90;;;;;;4979801;28;20061;-80
2021/12/28 09:55:40;;;;;;;20.88;6.15;;;6.30;99.90;;;;;;5006798;28;20061;-79
2021/12/28 09:58:06;;;;;;;26.83;7.38;;;6.40;99.90;;;;;;4985828;28;20060;-79
2021/12/28 10:00:33;;;;;;;15.43;6.00;;;6.30;99.90;;;;;;5011846;28;20061;-79
2021/12/28 10:02:59;;;;;;;19.60;6.78;;;6.40;99.90;;;;;;4991544;28;20054;-79
2021/12/28 10:05:26;;;;;;;27.35;7.82;;;6.40;99.90;;;;;;5002052;28;20050;-79
2021/12/28 10:07:54;;;;;;;16.00;7.20;;;6.50;99.90;;;;;;5003159;28;20053;-80
2021/12/28 10:10:21;;;;;;;17.10;7.15;;;6.50;99.90;;;;;;5002420;28;20050;-80
2021/12/28 10:12:47;;;;;;;27.63;6.57;;;6.50;99.90;;;;;;4986641;28;20050;-79
2021/12/28 10:15:14;;;;;;;13.95;6.85;;;6.60;99.90;;;;;;4989442;28;20065;-79
2021/12/28 10:17:40;;;;;;;24.55;6.82;;;6.60;99.90;;;;;;4987489;28;20057;-80
2021/12/28 10:20:07;;;;;;;13.90;6.85;;;6.60;99.90;;;;;;4991149;28;20064;-80
2021/12/28 10:22:33;;;;;;;19.83;6.35;;;6.70;99.90;;;;;;4988199;28;20498;-79
2021/12/28 10:25:00;;;;;;;15.90;6.68;;;6.70;99.90;;;;;;4991399;28;20053;-79
2021/12/28 10:27:26;;;;;;;21.38;7.82;;;6.70;99.90;;;;;;4989433;28;20062;-79
2021/12/28 10:29:53;;;;;;;20.70;7.25;;;6.70;99.90;;;;;;4994614;28;20904;-79
2021/12/28 10:32:20;;;;;;;17.25;7.32;;;6.80;99.90;;;;;;4989743;28;20050;-80
2021/12/28 10:34:46;;;;;;;17.42;6.20;;;6.80;99.90;;;;;;4990450;28;20065;-79
2021/12/28 10:37:13;;;;;;;14.73;6.45;;;6.80;99.90;;;;;;4983645;28;20145;-79
2021/12/28 10:39:39;;;;;;;16.95;6.22;;;6.80;99.90;;;;;;5004740;28;20525;-79
2021/12/28 10:42:06;;;;;;;22.35;7.38;;;6.90;99.90;;;;;;4980750;28;20481;-78
2021/12/28 10:44:32;;;;;;;18.40;7.40;;;6.90;99.90;;;;;;5014192;28;20495;-79
2021/12/28 10:46:59;;;;;;;17.70;7.80;;;6.80;99.90;;;;;;4988109;28;20054;-80
2021/12/28 10:49:26;;;;;;;13.02;6.65;;;6.90;99.90;;;;;;4985136;28;20535;-79
2021/12/28 10:51:53;;;;;;;11.82;5.03;;;6.80;99.90;;;;;;4999935;28;20060;-79
2021/12/28 10:54:20;;;;;;;16.80;6.35;;;6.90;99.90;;;;;;4991345;28;20073;-80
2021/12/28 10:56:46;;;;;;;18.35;7.80;;;6.80;99.90;;;;;;4982703;28;20053;-80
2021/12/28 10:59:14;;;;;;;13.98;6.35;;;6.90;99.90;;;;;;4990059;28;20056;-79
2021/12/28 11:01:42;;;;;;;12.68;7.85;;;6.90;99.90;;;;;;4993099;28;20477;-78
2021/12/28 11:04:09;;;;;;;18.33;6.15;;;6.90;99.90;;;;;;4993829;28;20057;-79
2021/12/28 11:06:36;;;;;;;13.10;6.22;;;7.00;99.90;;;;;;4989718;28;20066;-79
2021/12/28 11:09:02;;;;;;;22.38;7.30;;;7.00;99.90;;;;;;4999831;28;20054;-79
2021/12/28 11:11:29;;;;;;;25.00;7.88;;;7.00;99.90;;;;;;4989260;28;20062;-79
2021/12/28 11:13:55;;;;;;;18.48;7.35;;;7.00;99.90;;;;;;4989869;28;20068;-79
2021/12/28 11:16:26;;;;;;;12.68;6.93;;;7.00;99.90;;;;;;5004327;28;20469;-79
2021/12/28 11:18:52;;;;;;;23.20;7.18;;;7.00;99.90;;;;;;4990250;28;20049;-79
2021/12/28 11:21:19;;;;;;;15.65;6.07;;;7.10;99.90;;;;;;4988040;28;20045;-78
2021/12/28 11:23:45;;;;;;;11.60;6.63;;;7.10;99.90;;;;;;4989691;28;20511;-79
2021/12/28 11:26:12;;;;;;;15.27;5.88;;;7.10;99.90;;;;;;4989108;28;20049;-79
2021/12/28 11:28:39;;;;;;;17.48;6.10;;;7.10;99.90;;;;;;5011056;28;20053;-79
2021/12/28 11:31:05;;;;;;;14.20;6.63;;;7.00;99.90;;;;;;4983549;28;20054;-79
2021/12/28 11:33:32;;;;;;;14.52;7.28;;;7.00;99.90;;;;;;4998638;28;20405;-79
2021/12/28 11:35:58;;;;;;;14.00;6.90;;;7.00;99.90;;;;;;4976235;28;20069;-79
2021/12/28 11:38:25;;;;;;;29.95;7.50;;;7.00;99.90;;;;;;5017973;28;20054;-79
2021/12/28 11:40:51;;;;;;;15.48;6.38;;;7.00;99.90;;;;;;5001673;28;20062;-79
2021/12/28 11:43:18;;;;;;;14.73;6.13;;;7.00;99.90;;;;;;5007222;28;20053;-79
2021/12/28 11:45:44;;;;;;;18.65;7.40;;;7.00;99.90;;;;;;4999605;28;20060;-79
2021/12/28 11:48:11;;;;;;;19.27;7.53;;;7.00;99.90;;;;;;5005039;28;20050;-79
2021/12/28 11:50:38;;;;;;;16.55;5.43;;;7.00;99.90;;;;;;5003700;28;20054;-79
2021/12/28 11:53:04;;;;;;;18.08;7.38;;;7.00;99.90;;;;;;5007010;28;20057;-79
2021/12/28 11:55:31;;;;;;;15.88;6.97;;;7.10;99.90;;;;;;4988618;28;20497;-79
2021/12/28 11:57:57;;;;;;;18.48;7.50;;;7.10;99.90;;;;;;5004513;28;20540;-79
2021/12/28 12:00:24;;;;;;;26.50;7.13;;;7.10;99.90;;;;;;4989535;28;20053;-79
2021/12/28 12:02:51;;;;;;;14.50;7.32;;;7.10;99.90;;;;;;5005125;28;20054;-79
2021/12/28 12:05:18;;;;;;;18.55;6.95;;;7.10;99.90;;;;;;4991788;28;20043;-79
2021/12/28 12:07:44;;;;;;;17.63;5.53;;;7.10;99.90;;;;;;4979160;28;20371;-78
2021/12/28 12:10:11;;;;;;;15.90;6.25;;;7.10;99.90;;;;;;4986733;28;20046;-78
2021/12/28 12:12:37;;;;;;;21.20;6.47;;;7.20;99.90;;;;;;5002686;28;20053;-79
2021/12/28 12:15:08;;;;;;;21.80;6.70;;;7.20;99.90;;;;;;4989190;28;20050;-79
2021/12/28 12:17:37;;;;;;;21.10;7.75;;;7.20;99.90;;;;;;4978091;28;20069;-79
2021/12/28 12:20:04;;;;;;;26.23;7.45;;;7.30;99.90;;;;;;4995177;28;20058;-79
2021/12/28 12:22:30;;;;;;;18.77;7.00;;;7.30;99.90;;;;;;5000284;28;20049;-79
2021/12/28 12:24:57;;;;;;;19.83;6.95;;;7.30;99.90;;;;;;4988013;28;20061;-79
2021/12/28 12:27:23;;;;;;;24.38;6.28;;;7.30;99.90;;;;;;4982094;28;20053;-79
2021/12/28 12:29:50;;;;;;;10.35;6.15;;;7.30;99.90;;;;;;4988933;28;20054;-79
2021/12/28 12:32:16;;;;;;;20.85;6.60;;;7.30;99.90;;;;;;5003717;28;20053;-79
2021/12/28 12:34:43;;;;;;;20.92;8.40;;;7.30;99.90;;;;;;5005244;28;20057;-80